Disclaimer

Please do not use the information listed here in-flight or in-navigation, as they are not provided to us by the airports but are provided by volunteers, so they might be outdated.

Search


Regions


Airport information page

Radio informations:
Tower (TWR) - 119.8 MHz
Automatic Terminal Information Service (ATIS) - 123.9 MHz

Airport informations:
Latitude: 09° 00' 24.45" N
Longitude: 007° 15' 47.42" E
Elevation: 1123 feet - 342 meters
Operating hours: 24 hour operations
Operating agency: Civil government, landing fees and diplomatic clearance may be required
Timezone: UTC+1
Fuel: Unknown fuel type or whether there is any fuel.

Runway information:
04/22 - 11842 x 197 feet< - >3609 x 60 meters

Recent METARs:
DNAA 130200Z 06008KT CAVOK 20/10 Q1015 NOSIG
DNAA 130300Z 06005KT CAVOK 19/09 Q1015 NOSIG
DNAA 130300Z 06005KT CAVOK 19/09 Q1015 NOSIG

Airport on the map: